Terminal Aerodrome Forecast
Issued by NWS

Home | Current Version | Previous Version | Text Only | Print | Product List | Glossary On
Versions: 1 2 3 4 5 6 7 8 9 10 11 12 13 14 15 16 17 18 19 20 21 22
000
FTUS45 KTFX 260537
TAFBZN
TAF
KBZN 260537Z 2606/2706 16005KT P6SM SCT060 BKN120 WS015/26025KT
     FM261200 21008KT P6SM VCSH SCT035 OVC060 WS020/25025KT PROB30
      2618/2624 4SM -SHSN BR BKN025
     FM270000 21008KT 6SM -SN SCT025 OVC040 PROB30 2700/2706 3SM -SN
      BR BKN020=

USA.gov is the U.S. government's official web portal to all federal, state and local government web resources and services.